Impacts TAF Board INFO
FOR SITUATIONAL AWARENESS. NOT TO BE USED FOR FLIGHT PLANNING PURPOSES.
IDs:

KPDX - Portland Intl Arpt, OR, US

Issued at 2320 UTC 19 Feb 2018
Updated at 0141 UTC 20 Feb 2018
Potential Impact None Slight Moderate High
Time<<21/02Z 21/03Z 21/04Z 21/05Z 21/06Z 21/07Z 21/08Z 21/09Z 21/10Z 21/11Z 21/12Z 21/13Z 21/14Z
Type
VIS
CIG
Cover
FltCat
WX
WDir
WSpd
WGst

Raw TAF
KPDX 192320Z 2000/2024 35005KT P6SM SCT030 BKN050
  FM200400 12004KT P6SM SKC
  FM200800 13003KT P6SM SCT050 OVC080
  FM201500 11008KT 6SM -SN SCT025 OVC050
  FM201800 10010KT P6SM -RA BKN025 OVC040


METAR Board
Radar Display
Forecast Discussion

FOR SITUATIONAL AWARENESS. NOT TO BE USED FOR FLIGHT PLANNING PURPOSES.